Flight Briefing for CPX233

Departure Arrival
Sacramento International Airport (KSMF)
Click to view FAA NOTAMS
Phoenix Sky Harbor International Airport (KPHX)
Click to view FAA NOTAMS
Departure Time Arrival Time
N/A N/A
Aircraft Distance
B767-300BDSF 562nm
Departure METAR Arrival METAR
KSMF 271153Z 15007KT 10SM SCT070 BKN085 BKN110 12/09 A2999 RMK AO2 SLP153 60000 70009 T01170094 10117 20111 53004 KPHX 271151Z 23011KT 10SM CLR 19/06 A2982 RMK AO2 SLP082 T01890061 10244 20189 53008 $
Suggested Route
SCTWN2 SCTWN DOSCO OAL LIDAT BTY J92 BLD PRFUM WOTRO BRUSR1


View recent IFR Routes data
Notes



Charts and Procedures

Charts for KSMF
No chart available
Charts for KPHX
No chart available

Windy.com Weather Map